sensor_id;sensor_type;location;lat;lon;timestamp;temperature;humidity
40253;DHT22;25972;51.854;4.534;2022-11-20T00:00:52;-0.70;99.90
40253;DHT22;25972;51.854;4.534;2022-11-20T00:03:18;-0.70;99.90
40253;DHT22;25972;51.854;4.534;2022-11-20T00:05:44;-0.70;99.90
40253;DHT22;25972;51.854;4.534;2022-11-20T00:08:10;-0.70;99.90
40253;DHT22;25972;51.854;4.534;2022-11-20T00:10:39;-0.80;99.90
40253;DHT22;25972;51.854;4.534;2022-11-20T00:13:06;-0.70;99.90
40253;DHT22;25972;51.854;4.534;2022-11-20T00:15:32;-0.80;99.90
40253;DHT22;25972;51.854;4.534;2022-11-20T00:17:58;-0.80;99.90
40253;DHT22;25972;51.854;4.534;2022-11-20T00:20:24;-0.80;99.90
40253;DHT22;25972;51.854;4.534;2022-11-20T00:22:50;-0.90;99.90
40253;DHT22;25972;51.854;4.534;2022-11-20T00:25:16;-0.90;99.90
40253;DHT22;25972;51.854;4.534;2022-11-20T00:27:42;-0.80;99.90
40253;DHT22;25972;51.854;4.534;2022-11-20T00:30:08;-0.90;99.90
40253;DHT22;25972;51.854;4.534;2022-11-20T00:32:34;-0.90;99.90
40253;DHT22;25972;51.854;4.534;2022-11-20T00:35:00;-0.90;99.90
40253;DHT22;25972;51.854;4.534;2022-11-20T00:37:26;-0.90;99.90
40253;DHT22;25972;51.854;4.534;2022-11-20T00:39:52;-0.90;99.90
40253;DHT22;25972;51.854;4.534;2022-11-20T00:42:17;-0.90;99.90
40253;DHT22;25972;51.854;4.534;2022-11-20T00:44:43;-0.90;99.90
40253;DHT22;25972;51.854;4.534;2022-11-20T00:47:09;-0.90;99.90
40253;DHT22;25972;51.854;4.534;2022-11-20T00:49:35;-0.90;99.90
40253;DHT22;25972;51.854;4.534;2022-11-20T00:52:01;-1.00;99.90
40253;DHT22;25972;51.854;4.534;2022-11-20T00:54:27;-1.00;99.90
40253;DHT22;25972;51.854;4.534;2022-11-20T00:56:53;-1.00;99.90
40253;DHT22;25972;51.854;4.534;2022-11-20T00:59:19;-1.00;99.90
40253;DHT22;25972;51.854;4.534;2022-11-20T01:01:45;-1.00;99.90
40253;DHT22;25972;51.854;4.534;2022-11-20T01:04:10;-1.00;99.90
40253;DHT22;25972;51.854;4.534;2022-11-20T01:06:38;-1.10;99.90
40253;DHT22;25972;51.854;4.534;2022-11-20T01:09:10;-1.10;99.90
40253;DHT22;25972;51.854;4.534;2022-11-20T01:11:38;-1.10;99.90
40253;DHT22;25972;51.854;4.534;2022-11-20T01:14:06;-1.10;99.90
40253;DHT22;25972;51.854;4.534;2022-11-20T01:16:41;-1.20;99.90
40253;DHT22;25972;51.854;4.534;2022-11-20T01:19:11;-1.20;99.90
40253;DHT22;25972;51.854;4.534;2022-11-20T01:21:40;-1.20;99.90
40253;DHT22;25972;51.854;4.534;2022-11-20T01:24:07;-1.20;99.90
40253;DHT22;25972;51.854;4.534;2022-11-20T01:26:36;-1.20;99.90
40253;DHT22;25972;51.854;4.534;2022-11-20T01:29:03;-1.20;99.90
40253;DHT22;25972;51.854;4.534;2022-11-20T01:31:34;-1.20;99.90
40253;DHT22;25972;51.854;4.534;2022-11-20T01:34:05;-1.20;99.90
40253;DHT22;25972;51.854;4.534;2022-11-20T01:36:32;-1.20;99.90
40253;DHT22;25972;51.854;4.534;2022-11-20T01:39:00;-1.20;99.90
40253;DHT22;25972;51.854;4.534;2022-11-20T01:41:28;-1.30;99.90
40253;DHT22;25972;51.854;4.534;2022-11-20T01:44:20;-1.30;99.90
40253;DHT22;25972;51.854;4.534;2022-11-20T01:47:00;-1.30;99.90
40253;DHT22;25972;51.854;4.534;2022-11-20T01:49:39;-1.30;99.90
40253;DHT22;25972;51.854;4.534;2022-11-20T01:52:19;-1.30;99.90
40253;DHT22;25972;51.854;4.534;2022-11-20T01:54:56;-1.30;99.90
40253;DHT22;25972;51.854;4.534;2022-11-20T01:57:25;-1.30;99.90
40253;DHT22;25972;51.854;4.534;2022-11-20T01:59:57;-1.30;99.90
40253;DHT22;25972;51.854;4.534;2022-11-20T02:02:25;-1.40;99.90
40253;DHT22;25972;51.854;4.534;2022-11-20T02:04:54;-1.40;99.90
40253;DHT22;25972;51.854;4.534;2022-11-20T02:07:23;-1.40;99.90
40253;DHT22;25972;51.854;4.534;2022-11-20T02:09:50;-1.40;99.90
40253;DHT22;25972;51.854;4.534;2022-11-20T02:12:16;-1.40;99.90
40253;DHT22;25972;51.854;4.534;2022-11-20T02:15:01;-1.40;99.90
40253;DHT22;25972;51.854;4.534;2022-11-20T02:17:27;-1.40;99.90
40253;DHT22;25972;51.854;4.534;2022-11-20T02:19:53;-1.50;99.90
40253;DHT22;25972;51.854;4.534;2022-11-20T02:22:29;-1.50;99.90
40253;DHT22;25972;51.854;4.534;2022-11-20T02:24:58;-1.50;99.90
40253;DHT22;25972;51.854;4.534;2022-11-20T02:27:25;-1.50;99.90
40253;DHT22;25972;51.854;4.534;2022-11-20T02:29:55;-1.50;99.90
40253;DHT22;25972;51.854;4.534;2022-11-20T02:32:26;-1.50;99.90
40253;DHT22;25972;51.854;4.534;2022-11-20T02:34:53;-1.50;99.90
40253;DHT22;25972;51.854;4.534;2022-11-20T02:37:19;-1.50;99.90
40253;DHT22;25972;51.854;4.534;2022-11-20T02:39:51;-1.50;99.90
40253;DHT22;25972;51.854;4.534;2022-11-20T02:42:17;-1.50;99.90
40253;DHT22;25972;51.854;4.534;2022-11-20T02:44:43;-1.50;99.90
40253;DHT22;25972;51.854;4.534;2022-11-20T02:47:08;-1.50;99.90
40253;DHT22;25972;51.854;4.534;2022-11-20T02:49:34;-1.50;99.90
40253;DHT22;25972;51.854;4.534;2022-11-20T02:52:00;-1.50;99.90
40253;DHT22;25972;51.854;4.534;2022-11-20T02:54:26;-1.50;99.90
40253;DHT22;25972;51.854;4.534;2022-11-20T02:56:52;-1.50;99.90
40253;DHT22;25972;51.854;4.534;2022-11-20T02:59:17;-1.50;99.90
40253;DHT22;25972;51.854;4.534;2022-11-20T03:01:43;-1.50;99.90
40253;DHT22;25972;51.854;4.534;2022-11-20T03:04:09;-1.50;99.90
40253;DHT22;25972;51.854;4.534;2022-11-20T03:06:35;-1.50;99.90
40253;DHT22;25972;51.854;4.534;2022-11-20T03:09:00;-1.50;99.90
40253;DHT22;25972;51.854;4.534;2022-11-20T03:11:26;-1.50;99.90
40253;DHT22;25972;51.854;4.534;2022-11-20T03:13:52;-1.50;99.90
40253;DHT22;25972;51.854;4.534;2022-11-20T03:16:21;-1.50;99.90
40253;DHT22;25972;51.854;4.534;2022-11-20T03:18:47;-1.50;99.90
40253;DHT22;25972;51.854;4.534;2022-11-20T03:21:14;-1.50;99.90
40253;DHT22;25972;51.854;4.534;2022-11-20T03:23:41;-1.50;99.90
40253;DHT22;25972;51.854;4.534;2022-11-20T03:28:39;-1.50;99.90
40253;DHT22;25972;51.854;4.534;2022-11-20T03:31:13;-1.50;99.90
40253;DHT22;25972;51.854;4.534;2022-11-20T03:33:40;-1.50;99.90
40253;DHT22;25972;51.854;4.534;2022-11-20T03:36:09;-1.50;99.90
40253;DHT22;25972;51.854;4.534;2022-11-20T03:38:36;-1.60;99.90
40253;DHT22;25972;51.854;4.534;2022-11-20T03:41:25;-1.50;99.90
40253;DHT22;25972;51.854;4.534;2022-11-20T03:43:51;-1.60;99.90
40253;DHT22;25972;51.854;4.534;2022-11-20T03:46:17;-1.60;99.90
40253;DHT22;25972;51.854;4.534;2022-11-20T03:48:43;-1.60;99.90
40253;DHT22;25972;51.854;4.534;2022-11-20T03:51:09;-1.60;99.90
40253;DHT22;25972;51.854;4.534;2022-11-20T03:53:39;-1.60;99.90
40253;DHT22;25972;51.854;4.534;2022-11-20T03:56:06;-1.70;99.90
40253;DHT22;25972;51.854;4.534;2022-11-20T03:58:33;-1.70;99.90
40253;DHT22;25972;51.854;4.534;2022-11-20T04:01:07;-1.70;99.90
40253;DHT22;25972;51.854;4.534;2022-11-20T04:03:34;-1.70;99.90
40253;DHT22;25972;51.854;4.534;2022-11-20T04:06:05;-1.70;99.90
40253;DHT22;25972;51.854;4.534;2022-11-20T04:08:31;-1.70;99.90
40253;DHT22;25972;51.854;4.534;2022-11-20T04:11:11;-1.70;99.90
40253;DHT22;25972;51.854;4.534;2022-11-20T04:13:37;-1.70;99.90
40253;DHT22;25972;51.854;4.534;2022-11-20T04:16:05;-1.70;99.90
40253;DHT22;25972;51.854;4.534;2022-11-20T04:18:31;-1.70;99.90
40253;DHT22;25972;51.854;4.534;2022-11-20T04:20:58;-1.70;99.90
40253;DHT22;25972;51.854;4.534;2022-11-20T04:23:24;-1.70;99.90
40253;DHT22;25972;51.854;4.534;2022-11-20T04:25:50;-1.70;99.90
40253;DHT22;25972;51.854;4.534;2022-11-20T04:28:15;-1.70;99.90
40253;DHT22;25972;51.854;4.534;2022-11-20T04:30:42;-1.70;99.90
40253;DHT22;25972;51.854;4.534;2022-11-20T04:33:08;-1.70;99.90
40253;DHT22;25972;51.854;4.534;2022-11-20T04:35:35;-1.70;99.90
40253;DHT22;25972;51.854;4.534;2022-11-20T04:38:01;-1.70;99.90
40253;DHT22;25972;51.854;4.534;2022-11-20T04:40:28;-1.70;99.90
40253;DHT22;25972;51.854;4.534;2022-11-20T04:42:54;-1.70;99.90
40253;DHT22;25972;51.854;4.534;2022-11-20T04:45:20;-1.70;99.90
40253;DHT22;25972;51.854;4.534;2022-11-20T04:47:46;-1.70;99.90
40253;DHT22;25972;51.854;4.534;2022-11-20T04:50:12;-1.70;99.90
40253;DHT22;25972;51.854;4.534;2022-11-20T04:52:37;-1.70;99.90
40253;DHT22;25972;51.854;4.534;2022-11-20T04:55:03;-1.70;99.90
40253;DHT22;25972;51.854;4.534;2022-11-20T04:57:29;-1.70;99.90
40253;DHT22;25972;51.854;4.534;2022-11-20T04:59:55;-1.70;99.90
40253;DHT22;25972;51.854;4.534;2022-11-20T05:02:21;-1.70;99.90
40253;DHT22;25972;51.854;4.534;2022-11-20T05:04:47;-1.80;99.90
40253;DHT22;25972;51.854;4.534;2022-11-20T05:07:13;-1.80;99.90
40253;DHT22;25972;51.854;4.534;2022-11-20T05:09:38;-1.80;99.90
40253;DHT22;25972;51.854;4.534;2022-11-20T05:12:06;-1.70;99.90
40253;DHT22;25972;51.854;4.534;2022-11-20T05:14:32;-1.80;99.90
40253;DHT22;25972;51.854;4.534;2022-11-20T05:16:58;-1.80;99.90
40253;DHT22;25972;51.854;4.534;2022-11-20T05:19:23;-1.80;99.90
40253;DHT22;25972;51.854;4.534;2022-11-20T05:21:49;-1.90;99.90
40253;DHT22;25972;51.854;4.534;2022-11-20T05:24:15;-1.80;99.90
40253;DHT22;25972;51.854;4.534;2022-11-20T05:26:41;-1.80;99.90
40253;DHT22;25972;51.854;4.534;2022-11-20T05:29:09;-1.80;99.90
40253;DHT22;25972;51.854;4.534;2022-11-20T05:31:34;-1.90;99.90
40253;DHT22;25972;51.854;4.534;2022-11-20T05:34:01;-1.80;99.90
40253;DHT22;25972;51.854;4.534;2022-11-20T05:36:27;-1.80;99.90
40253;DHT22;25972;51.854;4.534;2022-11-20T05:38:53;-1.80;99.90
40253;DHT22;25972;51.854;4.534;2022-11-20T05:41:19;-1.90;99.90
40253;DHT22;25972;51.854;4.534;2022-11-20T05:43:47;-1.90;99.90
40253;DHT22;25972;51.854;4.534;2022-11-20T05:46:16;-1.80;99.90
40253;DHT22;25972;51.854;4.534;2022-11-20T05:48:43;-1.80;99.90
40253;DHT22;25972;51.854;4.534;2022-11-20T05:51:11;-1.80;99.90
40253;DHT22;25972;51.854;4.534;2022-11-20T05:53:37;-1.80;99.90
40253;DHT22;25972;51.854;4.534;2022-11-20T05:56:15;-1.80;99.90
40253;DHT22;25972;51.854;4.534;2022-11-20T05:58:41;-1.70;99.90
40253;DHT22;25972;51.854;4.534;2022-11-20T06:03:40;-1.80;99.90
40253;DHT22;25972;51.854;4.534;2022-11-20T06:06:08;-1.70;99.90
40253;DHT22;25972;51.854;4.534;2022-11-20T06:08:34;-1.70;99.90
40253;DHT22;25972;51.854;4.534;2022-11-20T06:11:04;-1.60;99.90
40253;DHT22;25972;51.854;4.534;2022-11-20T06:13:30;-1.70;99.90
40253;DHT22;25972;51.854;4.534;2022-11-20T06:15:56;-1.60;99.90
40253;DHT22;25972;51.854;4.534;2022-11-20T06:18:22;-1.70;99.90
40253;DHT22;25972;51.854;4.534;2022-11-20T06:20:47;-1.60;99.90
40253;DHT22;25972;51.854;4.534;2022-11-20T06:23:13;-1.60;99.90
40253;DHT22;25972;51.854;4.534;2022-11-20T06:25:40;-1.70;99.90
40253;DHT22;25972;51.854;4.534;2022-11-20T06:28:07;-1.70;99.90
40253;DHT22;25972;51.854;4.534;2022-11-20T06:30:34;-1.60;99.90
40253;DHT22;25972;51.854;4.534;2022-11-20T06:33:00;-1.60;99.90
40253;DHT22;25972;51.854;4.534;2022-11-20T06:35:26;-1.60;99.90
40253;DHT22;25972;51.854;4.534;2022-11-20T06:37:53;-1.60;99.90
40253;DHT22;25972;51.854;4.534;2022-11-20T06:40:19;-1.50;99.90
40253;DHT22;25972;51.854;4.534;2022-11-20T06:42:45;-1.60;99.90
40253;DHT22;25972;51.854;4.534;2022-11-20T06:45:10;-1.50;99.90
40253;DHT22;25972;51.854;4.534;2022-11-20T06:47:36;-1.40;99.90
40253;DHT22;25972;51.854;4.534;2022-11-20T06:50:03;-1.40;99.90
40253;DHT22;25972;51.854;4.534;2022-11-20T06:52:30;-1.40;99.90
40253;DHT22;25972;51.854;4.534;2022-11-20T06:54:56;-1.30;99.90
40253;DHT22;25972;51.854;4.534;2022-11-20T06:57:21;-1.30;99.90
40253;DHT22;25972;51.854;4.534;2022-11-20T06:59:47;-1.20;99.90
40253;DHT22;25972;51.854;4.534;2022-11-20T07:02:13;-1.30;99.90
40253;DHT22;25972;51.854;4.534;2022-11-20T07:04:39;-1.10;99.90
40253;DHT22;25972;51.854;4.534;2022-11-20T07:07:04;-1.00;99.90
40253;DHT22;25972;51.854;4.534;2022-11-20T07:09:32;-1.00;99.90
40253;DHT22;25972;51.854;4.534;2022-11-20T07:11:58;-1.00;99.90
40253;DHT22;25972;51.854;4.534;2022-11-20T07:14:23;-1.00;99.90
40253;DHT22;25972;51.854;4.534;2022-11-20T07:16:49;-1.00;99.90
40253;DHT22;25972;51.854;4.534;2022-11-20T07:19:16;-1.00;99.90
40253;DHT22;25972;51.854;4.534;2022-11-20T07:21:42;-0.90;99.90
40253;DHT22;25972;51.854;4.534;2022-11-20T07:24:08;-0.80;99.90
40253;DHT22;25972;51.854;4.534;2022-11-20T07:26:33;-0.80;99.90
40253;DHT22;25972;51.854;4.534;2022-11-20T07:28:59;-0.80;99.90
40253;DHT22;25972;51.854;4.534;2022-11-20T07:31:25;-0.60;99.90
40253;DHT22;25972;51.854;4.534;2022-11-20T07:33:51;-0.70;99.90
40253;DHT22;25972;51.854;4.534;2022-11-20T07:36:16;-0.60;99.90
40253;DHT22;25972;51.854;4.534;2022-11-20T07:38:42;-0.60;99.90
40253;DHT22;25972;51.854;4.534;2022-11-20T07:41:08;-0.50;99.90
40253;DHT22;25972;51.854;4.534;2022-11-20T07:43:34;-0.50;99.90
40253;DHT22;25972;51.854;4.534;2022-11-20T07:46:01;-0.40;99.90
40253;DHT22;25972;51.854;4.534;2022-11-20T07:48:26;-0.50;99.90
40253;DHT22;25972;51.854;4.534;2022-11-20T07:50:56;-0.40;99.90
40253;DHT22;25972;51.854;4.534;2022-11-20T07:53:25;-0.30;99.90
40253;DHT22;25972;51.854;4.534;2022-11-20T07:55:50;-0.20;99.90
40253;DHT22;25972;51.854;4.534;2022-11-20T07:58:20;-0.20;99.90
40253;DHT22;25972;51.854;4.534;2022-11-20T08:00:46;-0.10;99.90
40253;DHT22;25972;51.854;4.534;2022-11-20T08:03:12;-0.20;99.90
40253;DHT22;25972;51.854;4.534;2022-11-20T08:05:38;0.00;99.90
40253;DHT22;25972;51.854;4.534;2022-11-20T08:08:04;0.10;99.90
40253;DHT22;25972;51.854;4.534;2022-11-20T08:10:30;0.00;99.90
40253;DHT22;25972;51.854;4.534;2022-11-20T08:12:55;0.00;99.90
40253;DHT22;25972;51.854;4.534;2022-11-20T08:15:40;0.10;99.90
40253;DHT22;25972;51.854;4.534;2022-11-20T08:18:11;0.20;99.90
40253;DHT22;25972;51.854;4.534;2022-11-20T08:20:37;0.40;99.90
40253;DHT22;25972;51.854;4.534;2022-11-20T08:23:07;0.40;99.90
40253;DHT22;25972;51.854;4.534;2022-11-20T08:25:35;0.50;99.90
40253;DHT22;25972;51.854;4.534;2022-11-20T08:28:03;0.40;99.90
40253;DHT22;25972;51.854;4.534;2022-11-20T08:30:29;0.50;99.90
40253;DHT22;25972;51.854;4.534;2022-11-20T08:33:04;0.60;99.90
40253;DHT22;25972;51.854;4.534;2022-11-20T08:35:37;0.70;99.90
40253;DHT22;25972;51.854;4.534;2022-11-20T08:38:04;0.70;99.90
40253;DHT22;25972;51.854;4.534;2022-11-20T08:40:30;0.70;99.90
40253;DHT22;25972;51.854;4.534;2022-11-20T08:42:57;0.80;99.90
40253;DHT22;25972;51.854;4.534;2022-11-20T08:45:22;0.90;99.90
40253;DHT22;25972;51.854;4.534;2022-11-20T08:47:48;1.00;99.90
40253;DHT22;25972;51.854;4.534;2022-11-20T08:50:15;1.00;99.90
40253;DHT22;25972;51.854;4.534;2022-11-20T08:52:41;1.10;99.90
40253;DHT22;25972;51.854;4.534;2022-11-20T08:55:08;1.10;99.90
40253;DHT22;25972;51.854;4.534;2022-11-20T08:57:35;1.10;99.90
40253;DHT22;25972;51.854;4.534;2022-11-20T09:00:04;1.20;99.90
40253;DHT22;25972;51.854;4.534;2022-11-20T09:02:31;1.30;99.90
40253;DHT22;25972;51.854;4.534;2022-11-20T09:04:58;1.20;99.90
40253;DHT22;25972;51.854;4.534;2022-11-20T09:07:24;1.30;99.90
40253;DHT22;25972;51.854;4.534;2022-11-20T09:09:49;1.40;99.90
40253;DHT22;25972;51.854;4.534;2022-11-20T09:12:15;1.40;99.90
40253;DHT22;25972;51.854;4.534;2022-11-20T09:14:41;1.40;99.90
40253;DHT22;25972;51.854;4.534;2022-11-20T09:17:08;1.50;99.90
40253;DHT22;25972;51.854;4.534;2022-11-20T09:19:34;1.50;99.90
40253;DHT22;25972;51.854;4.534;2022-11-20T09:22:00;1.50;99.90
40253;DHT22;25972;51.854;4.534;2022-11-20T09:24:27;1.50;99.90
40253;DHT22;25972;51.854;4.534;2022-11-20T09:26:53;1.70;99.90
40253;DHT22;25972;51.854;4.534;2022-11-20T09:29:19;1.60;99.90
40253;DHT22;25972;51.854;4.534;2022-11-20T09:31:45;1.80;99.90
40253;DHT22;25972;51.854;4.534;2022-11-20T09:34:10;1.80;99.90
40253;DHT22;25972;51.854;4.534;2022-11-20T09:36:36;1.80;99.90
40253;DHT22;25972;51.854;4.534;2022-11-20T09:39:02;1.80;99.90
40253;DHT22;25972;51.854;4.534;2022-11-20T09:41:35;1.90;99.90
40253;DHT22;25972;51.854;4.534;2022-11-20T09:44:28;1.80;99.90
40253;DHT22;25972;51.854;4.534;2022-11-20T09:50:14;1.80;99.90
40253;DHT22;25972;51.854;4.534;2022-11-20T09:55:48;2.00;99.90
40253;DHT22;25972;51.854;4.534;2022-11-20T09:58:31;1.90;99.90
40253;DHT22;25972;51.854;4.534;2022-11-20T10:01:28;2.00;99.90
40253;DHT22;25972;51.854;4.534;2022-11-20T10:04:03;2.00;99.90
40253;DHT22;25972;51.854;4.534;2022-11-20T10:06:51;2.20;99.90
40253;DHT22;25972;51.854;4.534;2022-11-20T10:09:31;2.30;99.90
40253;DHT22;25972;51.854;4.534;2022-11-20T10:15:19;2.40;99.90
40253;DHT22;25972;51.854;4.534;2022-11-20T10:23:30;2.50;99.90
40253;DHT22;25972;51.854;4.534;2022-11-20T10:26:22;2.50;99.90
40253;DHT22;25972;51.854;4.534;2022-11-20T10:31:34;2.60;99.90
40253;DHT22;25972;51.854;4.534;2022-11-20T10:34:28;2.60;99.90
40253;DHT22;25972;51.854;4.534;2022-11-20T10:36:55;2.60;99.90
40253;DHT22;25972;51.854;4.534;2022-11-20T10:39:35;2.80;99.90
40253;DHT22;25972;51.854;4.534;2022-11-20T10:42:10;2.80;99.90
40253;DHT22;25972;51.854;4.534;2022-11-20T10:44:36;2.90;99.90
40253;DHT22;25972;51.854;4.534;2022-11-20T10:47:25;2.90;99.90
40253;DHT22;25972;51.854;4.534;2022-11-20T10:49:55;2.90;99.90
40253;DHT22;25972;51.854;4.534;2022-11-20T10:55:33;2.90;99.90
40253;DHT22;25972;51.854;4.534;2022-11-20T10:58:16;3.10;99.90
40253;DHT22;25972;51.854;4.534;2022-11-20T11:00:45;3.00;99.90
40253;DHT22;25972;51.854;4.534;2022-11-20T11:03:25;3.20;99.90
40253;DHT22;25972;51.854;4.534;2022-11-20T11:08:41;3.20;99.90
40253;DHT22;25972;51.854;4.534;2022-11-20T11:11:29;3.30;99.90
40253;DHT22;25972;51.854;4.534;2022-11-20T11:14:14;3.40;99.90
40253;DHT22;25972;51.854;4.534;2022-11-20T11:16:50;3.50;99.90
40253;DHT22;25972;51.854;4.534;2022-11-20T11:19:16;3.50;99.90
40253;DHT22;25972;51.854;4.534;2022-11-20T11:21:54;3.50;99.90
40253;DHT22;25972;51.854;4.534;2022-11-20T11:24:25;3.70;99.90
40253;DHT22;25972;51.854;4.534;2022-11-20T11:27:00;3.70;99.90
40253;DHT22;25972;51.854;4.534;2022-11-20T11:29:30;3.70;99.90
40253;DHT22;25972;51.854;4.534;2022-11-20T11:32:08;3.70;99.90
40253;DHT22;25972;51.854;4.534;2022-11-20T11:34:34;3.80;99.90
40253;DHT22;25972;51.854;4.534;2022-11-20T11:37:01;3.70;99.90
40253;DHT22;25972;51.854;4.534;2022-11-20T11:39:29;3.70;99.90
40253;DHT22;25972;51.854;4.534;2022-11-20T11:41:55;3.80;99.90
40253;DHT22;25972;51.854;4.534;2022-11-20T11:44:33;4.00;99.90
40253;DHT22;25972;51.854;4.534;2022-11-20T11:47:26;4.00;99.90
40253;DHT22;25972;51.854;4.534;2022-11-20T11:57:57;4.00;99.90
40253;DHT22;25972;51.854;4.534;2022-11-20T12:00:25;4.10;99.90
40253;DHT22;25972;51.854;4.534;2022-11-20T12:03:16;4.30;99.90
40253;DHT22;25972;51.854;4.534;2022-11-20T12:05:50;4.10;99.90
40253;DHT22;25972;51.854;4.534;2022-11-20T12:08:55;4.20;99.90
40253;DHT22;25972;51.854;4.534;2022-11-20T12:11:45;4.00;99.90
40253;DHT22;25972;51.854;4.534;2022-11-20T12:16:41;4.20;99.90
40253;DHT22;25972;51.854;4.534;2022-11-20T12:19:14;4.20;99.90
40253;DHT22;25972;51.854;4.534;2022-11-20T12:21:46;4.30;99.90
40253;DHT22;25972;51.854;4.534;2022-11-20T12:30:08;4.20;99.90
40253;DHT22;25972;51.854;4.534;2022-11-20T12:32:45;4.10;99.90
40253;DHT22;25972;51.854;4.534;2022-11-20T12:41:41;4.20;99.90
40253;DHT22;25972;51.854;4.534;2022-11-20T12:47:59;4.30;99.90
40253;DHT22;25972;51.854;4.534;2022-11-20T13:01:30;4.30;99.90
40253;DHT22;25972;51.854;4.534;2022-11-20T13:07:14;4.20;99.90
40253;DHT22;25972;51.854;4.534;2022-11-20T13:09:47;4.30;99.90
40253;DHT22;25972;51.854;4.534;2022-11-20T13:12:15;4.40;99.90
40253;DHT22;25972;51.854;4.534;2022-11-20T13:14:47;4.50;99.90
40253;DHT22;25972;51.854;4.534;2022-11-20T13:20:16;4.40;99.90
40253;DHT22;25972;51.854;4.534;2022-11-20T13:22:51;4.60;99.90
40253;DHT22;25972;51.854;4.534;2022-11-20T13:27:58;4.60;99.90
40253;DHT22;25972;51.854;4.534;2022-11-20T13:30:28;4.50;99.90
40253;DHT22;25972;51.854;4.534;2022-11-20T13:32:56;4.40;99.90
40253;DHT22;25972;51.854;4.534;2022-11-20T13:38:12;4.60;99.90
40253;DHT22;25972;51.854;4.534;2022-11-20T13:43:39;4.50;99.90
40253;DHT22;25972;51.854;4.534;2022-11-20T13:46:07;4.50;99.90
40253;DHT22;25972;51.854;4.534;2022-11-20T13:48:39;4.70;99.90
40253;DHT22;25972;51.854;4.534;2022-11-20T13:51:24;4.60;99.90
40253;DHT22;25972;51.854;4.534;2022-11-20T14:02:20;4.50;99.90
40253;DHT22;25972;51.854;4.534;2022-11-20T14:04:49;4.60;99.90
40253;DHT22;25972;51.854;4.534;2022-11-20T14:07:17;4.60;99.90
40253;DHT22;25972;51.854;4.534;2022-11-20T14:09:52;4.70;99.90
40253;DHT22;25972;51.854;4.534;2022-11-20T14:12:21;4.70;99.90
40253;DHT22;25972;51.854;4.534;2022-11-20T14:14:50;4.70;99.90
40253;DHT22;25972;51.854;4.534;2022-11-20T14:19:58;4.90;99.90
40253;DHT22;25972;51.854;4.534;2022-11-20T14:22:26;4.80;99.90
40253;DHT22;25972;51.854;4.534;2022-11-20T14:27:40;4.90;99.90
40253;DHT22;25972;51.854;4.534;2022-11-20T14:32:39;4.80;99.90
40253;DHT22;25972;51.854;4.534;2022-11-20T14:35:14;4.60;99.90
40253;DHT22;25972;51.854;4.534;2022-11-20T14:37:44;4.70;99.90
40253;DHT22;25972;51.854;4.534;2022-11-20T14:42:49;4.90;99.90
40253;DHT22;25972;51.854;4.534;2022-11-20T14:45:16;4.80;99.90
40253;DHT22;25972;51.854;4.534;2022-11-20T14:47:42;4.80;99.90
40253;DHT22;25972;51.854;4.534;2022-11-20T14:50:29;4.70;99.90
40253;DHT22;25972;51.854;4.534;2022-11-20T14:52:57;4.90;99.90
40253;DHT22;25972;51.854;4.534;2022-11-20T14:55:35;4.80;99.90
40253;DHT22;25972;51.854;4.534;2022-11-20T14:58:21;4.70;99.90
40253;DHT22;25972;51.854;4.534;2022-11-20T15:01:05;4.70;99.90
40253;DHT22;25972;51.854;4.534;2022-11-20T15:03:36;4.60;99.90
40253;DHT22;25972;51.854;4.534;2022-11-20T15:06:03;4.90;99.90
40253;DHT22;25972;51.854;4.534;2022-11-20T15:08:29;4.80;99.90
40253;DHT22;25972;51.854;4.534;2022-11-20T15:10:55;4.90;99.90
40253;DHT22;25972;51.854;4.534;2022-11-20T15:13:32;4.60;99.90
40253;DHT22;25972;51.854;4.534;2022-11-20T15:16:00;5.00;99.90
40253;DHT22;25972;51.854;4.534;2022-11-20T15:18:33;4.60;99.90
40253;DHT22;25972;51.854;4.534;2022-11-20T15:21:05;4.90;99.90
40253;DHT22;25972;51.854;4.534;2022-11-20T15:23:35;5.00;99.90
40253;DHT22;25972;51.854;4.534;2022-11-20T15:26:01;4.70;99.90
40253;DHT22;25972;51.854;4.534;2022-11-20T15:28:37;5.00;99.90
40253;DHT22;25972;51.854;4.534;2022-11-20T15:31:05;4.60;99.90
40253;DHT22;25972;51.854;4.534;2022-11-20T15:33:32;4.60;99.90
40253;DHT22;25972;51.854;4.534;2022-11-20T15:35:58;5.00;99.90
40253;DHT22;25972;51.854;4.534;2022-11-20T15:38:24;4.80;99.90
40253;DHT22;25972;51.854;4.534;2022-11-20T15:40:50;5.00;99.90
40253;DHT22;25972;51.854;4.534;2022-11-20T15:43:16;5.00;99.90
40253;DHT22;25972;51.854;4.534;2022-11-20T15:48:21;5.00;99.90
40253;DHT22;25972;51.854;4.534;2022-11-20T15:51:00;5.00;99.90
40253;DHT22;25972;51.854;4.534;2022-11-20T15:53:27;4.90;99.90
40253;DHT22;25972;51.854;4.534;2022-11-20T15:55:53;4.80;99.90
40253;DHT22;25972;51.854;4.534;2022-11-20T15:58:18;4.90;99.90
40253;DHT22;25972;51.854;4.534;2022-11-20T16:00:45;5.40;99.90
40253;DHT22;25972;51.854;4.534;2022-11-20T16:03:12;4.90;99.90
40253;DHT22;25972;51.854;4.534;2022-11-20T16:05:38;5.00;99.90
40253;DHT22;25972;51.854;4.534;2022-11-20T16:08:04;4.90;99.90
40253;DHT22;25972;51.854;4.534;2022-11-20T16:10:30;5.00;99.90
40253;DHT22;25972;51.854;4.534;2022-11-20T16:12:56;5.00;99.90
40253;DHT22;25972;51.854;4.534;2022-11-20T16:15:40;5.20;99.90
40253;DHT22;25972;51.854;4.534;2022-11-20T16:18:17;5.40;99.90
40253;DHT22;25972;51.854;4.534;2022-11-20T16:20:44;5.40;99.90
40253;DHT22;25972;51.854;4.534;2022-11-20T16:23:11;5.50;99.90
40253;DHT22;25972;51.854;4.534;2022-11-20T16:25:37;5.50;99.90
40253;DHT22;25972;51.854;4.534;2022-11-20T16:28:03;5.60;99.90
40253;DHT22;25972;51.854;4.534;2022-11-20T16:30:30;5.30;99.90
40253;DHT22;25972;51.854;4.534;2022-11-20T16:32:56;5.70;99.90
40253;DHT22;25972;51.854;4.534;2022-11-20T16:35:21;5.30;99.90
40253;DHT22;25972;51.854;4.534;2022-11-20T16:37:47;5.70;99.90
40253;DHT22;25972;51.854;4.534;2022-11-20T16:40:13;5.40;99.90
40253;DHT22;25972;51.854;4.534;2022-11-20T16:42:39;5.30;99.90
40253;DHT22;25972;51.854;4.534;2022-11-20T16:45:05;5.70;99.90
40253;DHT22;25972;51.854;4.534;2022-11-20T16:47:34;5.70;99.90
40253;DHT22;25972;51.854;4.534;2022-11-20T16:50:01;5.60;99.90
40253;DHT22;25972;51.854;4.534;2022-11-20T16:52:27;5.60;99.90
40253;DHT22;25972;51.854;4.534;2022-11-20T16:54:54;5.20;99.90
40253;DHT22;25972;51.854;4.534;2022-11-20T16:57:20;5.40;99.90
40253;DHT22;25972;51.854;4.534;2022-11-20T16:59:45;5.60;99.90
40253;DHT22;25972;51.854;4.534;2022-11-20T17:02:11;5.30;99.90
40253;DHT22;25972;51.854;4.534;2022-11-20T17:04:37;5.10;99.90
40253;DHT22;25972;51.854;4.534;2022-11-20T17:07:03;5.60;99.90
40253;DHT22;25972;51.854;4.534;2022-11-20T17:09:29;5.30;99.90
40253;DHT22;25972;51.854;4.534;2022-11-20T17:11:55;5.20;99.90
40253;DHT22;25972;51.854;4.534;2022-11-20T17:14:21;5.30;99.90
40253;DHT22;25972;51.854;4.534;2022-11-20T17:16:47;5.10;99.90
40253;DHT22;25972;51.854;4.534;2022-11-20T17:19:13;5.00;99.90
40253;DHT22;25972;51.854;4.534;2022-11-20T17:21:40;5.00;99.90
40253;DHT22;25972;51.854;4.534;2022-11-20T17:24:11;5.40;99.90
40253;DHT22;25972;51.854;4.534;2022-11-20T17:26:39;5.20;99.90
40253;DHT22;25972;51.854;4.534;2022-11-20T17:29:08;4.90;99.90
40253;DHT22;25972;51.854;4.534;2022-11-20T17:31:35;4.90;99.90